sensor_id;sensor_type;location;lat;lon;timestamp;pressure;altitude;pressure_sealevel;temperature;humidity
55271;BME280;41132;47.162;9.470;2023-03-12T00:00:17;96184.03;;;1.45;100.00
55271;BME280;41132;47.162;9.470;2023-03-12T00:02:42;96185.47;;;1.49;100.00
55271;BME280;41132;47.162;9.470;2023-03-12T00:05:08;96188.63;;;1.65;100.00
55271;BME280;41132;47.162;9.470;2023-03-12T00:07:33;96181.25;;;1.72;100.00
55271;BME280;41132;47.162;9.470;2023-03-12T00:10:01;96195.47;;;1.91;100.00
55271;BME280;41132;47.162;9.470;2023-03-12T00:12:26;96202.59;;;1.76;100.00
55271;BME280;41132;47.162;9.470;2023-03-12T00:14:52;96200.25;;;1.60;100.00
55271;BME280;41132;47.162;9.470;2023-03-12T00:17:17;96211.47;;;1.84;100.00
55271;BME280;41132;47.162;9.470;2023-03-12T00:19:42;96204.84;;;1.80;100.00
55271;BME280;41132;47.162;9.470;2023-03-12T00:22:09;96198.16;;;1.65;100.00
55271;BME280;41132;47.162;9.470;2023-03-12T00:24:34;96198.88;;;1.67;100.00
55271;BME280;41132;47.162;9.470;2023-03-12T00:27:00;96205.59;;;1.70;100.00
55271;BME280;41132;47.162;9.470;2023-03-12T00:29:25;96199.84;;;1.66;100.00
55271;BME280;41132;47.162;9.470;2023-03-12T00:31:51;96199.94;;;1.64;100.00
55271;BME280;41132;47.162;9.470;2023-03-12T00:34:16;96209.53;;;1.75;100.00
55271;BME280;41132;47.162;9.470;2023-03-12T00:36:41;96211.25;;;1.87;100.00
55271;BME280;41132;47.162;9.470;2023-03-12T00:39:07;96205.75;;;1.79;100.00
55271;BME280;41132;47.162;9.470;2023-03-12T00:41:32;96210.50;;;1.85;100.00
55271;BME280;41132;47.162;9.470;2023-03-12T00:43:57;96214.34;;;2.17;100.00
55271;BME280;41132;47.162;9.470;2023-03-12T00:46:23;96219.13;;;2.10;100.00
55271;BME280;41132;47.162;9.470;2023-03-12T00:48:49;96213.16;;;1.97;100.00
55271;BME280;41132;47.162;9.470;2023-03-12T00:51:15;96196.66;;;1.86;100.00
55271;BME280;41132;47.162;9.470;2023-03-12T00:53:40;96214.94;;;1.96;100.00
55271;BME280;41132;47.162;9.470;2023-03-12T00:56:06;96205.00;;;1.90;100.00
55271;BME280;41132;47.162;9.470;2023-03-12T00:58:32;96202.97;;;1.82;100.00
55271;BME280;41132;47.162;9.470;2023-03-12T01:00:57;96199.50;;;1.71;100.00
55271;BME280;41132;47.162;9.470;2023-03-12T01:03:23;96199.03;;;1.90;100.00
55271;BME280;41132;47.162;9.470;2023-03-12T01:05:48;96203.50;;;1.75;100.00
55271;BME280;41132;47.162;9.470;2023-03-12T01:08:18;96204.75;;;1.82;100.00
55271;BME280;41132;47.162;9.470;2023-03-12T01:10:43;96201.13;;;1.84;100.00
55271;BME280;41132;47.162;9.470;2023-03-12T01:13:09;96195.28;;;1.94;100.00
55271;BME280;41132;47.162;9.470;2023-03-12T01:15:34;96208.75;;;1.86;100.00
55271;BME280;41132;47.162;9.470;2023-03-12T01:18:00;96207.78;;;1.63;100.00
55271;BME280;41132;47.162;9.470;2023-03-12T01:39:38;96215.03;;;1.71;100.00
55271;BME280;41132;47.162;9.470;2023-03-12T01:42:04;96220.38;;;1.80;100.00
55271;BME280;41132;47.162;9.470;2023-03-12T01:44:30;96215.13;;;1.69;100.00
55271;BME280;41132;47.162;9.470;2023-03-12T01:46:55;96220.16;;;1.83;100.00
55271;BME280;41132;47.162;9.470;2023-03-12T01:49:25;96213.47;;;1.68;100.00
55271;BME280;41132;47.162;9.470;2023-03-12T01:52:02;96219.97;;;1.74;100.00
55271;BME280;41132;47.162;9.470;2023-03-12T01:54:35;96220.44;;;1.55;100.00
55271;BME280;41132;47.162;9.470;2023-03-12T01:57:03;96222.81;;;1.58;100.00
55271;BME280;41132;47.162;9.470;2023-03-12T01:59:34;96229.53;;;1.60;100.00
55271;BME280;41132;47.162;9.470;2023-03-12T02:02:02;96219.66;;;1.41;100.00
55271;BME280;41132;47.162;9.470;2023-03-12T02:04:29;96227.56;;;1.64;100.00
55271;BME280;41132;47.162;9.470;2023-03-12T02:09:25;96228.94;;;1.57;100.00
55271;BME280;41132;47.162;9.470;2023-03-12T02:11:50;96231.22;;;1.49;100.00
55271;BME280;41132;47.162;9.470;2023-03-12T02:14:15;96231.22;;;1.49;100.00
55271;BME280;41132;47.162;9.470;2023-03-12T02:16:42;96222.81;;;1.58;100.00
55271;BME280;41132;47.162;9.470;2023-03-12T02:19:42;96246.91;;;1.71;100.00
55271;BME280;41132;47.162;9.470;2023-03-12T02:21:57;96232.09;;;1.73;100.00
55271;BME280;41132;47.162;9.470;2023-03-12T02:27:03;96235.09;;;1.67;100.00
55271;BME280;41132;47.162;9.470;2023-03-12T02:29:31;96245.69;;;1.64;100.00
55271;BME280;41132;47.162;9.470;2023-03-12T02:31:59;96238.50;;;1.67;100.00
55271;BME280;41132;47.162;9.470;2023-03-12T02:34:27;96231.16;;;1.74;100.00
55271;BME280;41132;47.162;9.470;2023-03-12T02:36:52;96234.72;;;1.48;100.00
55271;BME280;41132;47.162;9.470;2023-03-12T02:39:17;96236.72;;;1.44;100.00
55271;BME280;41132;47.162;9.470;2023-03-12T02:41:48;96232.03;;;1.49;100.00
55271;BME280;41132;47.162;9.470;2023-03-12T02:44:18;96247.56;;;1.49;100.00
55271;BME280;41132;47.162;9.470;2023-03-12T02:46:50;96240.28;;;1.67;100.00
55271;BME280;41132;47.162;9.470;2023-03-12T02:49:18;96242.16;;;1.52;100.00
55271;BME280;41132;47.162;9.470;2023-03-12T02:51:44;96255.09;;;1.52;100.00
55271;BME280;41132;47.162;9.470;2023-03-12T02:54:11;96253.59;;;1.37;100.00
55271;BME280;41132;47.162;9.470;2023-03-12T02:56:36;96245.09;;;1.22;100.00
55271;BME280;41132;47.162;9.470;2023-03-12T02:59:03;96263.59;;;1.29;100.00
55271;BME280;41132;47.162;9.470;2023-03-12T03:01:29;96256.66;;;1.29;100.00
55271;BME280;41132;47.162;9.470;2023-03-12T03:03:58;96263.91;;;1.24;100.00
55271;BME280;41132;47.162;9.470;2023-03-12T03:06:24;96257.63;;;1.41;100.00
55271;BME280;41132;47.162;9.470;2023-03-12T03:08:50;96249.41;;;1.47;100.00
55271;BME280;41132;47.162;9.470;2023-03-12T03:11:15;96258.63;;;1.51;100.00
55271;BME280;41132;47.162;9.470;2023-03-12T03:13:41;96259.75;;;1.60;100.00
55271;BME280;41132;47.162;9.470;2023-03-12T03:16:06;96258.09;;;1.59;100.00
55271;BME280;41132;47.162;9.470;2023-03-12T03:18:32;96263.25;;;1.59;100.00
55271;BME280;41132;47.162;9.470;2023-03-12T03:21:03;96263.97;;;1.61;100.00
55271;BME280;41132;47.162;9.470;2023-03-12T03:23:29;96262.69;;;1.79;100.00
55271;BME280;41132;47.162;9.470;2023-03-12T03:25:55;96251.34;;;1.69;100.00
55271;BME280;41132;47.162;9.470;2023-03-12T03:28:22;96264.63;;;1.52;100.00
55271;BME280;41132;47.162;9.470;2023-03-12T03:30:51;96261.53;;;1.59;100.00
55271;BME280;41132;47.162;9.470;2023-03-12T03:33:17;96261.69;;;1.69;100.00
55271;BME280;41132;47.162;9.470;2023-03-12T03:35:42;96268.19;;;1.75;100.00
55271;BME280;41132;47.162;9.470;2023-03-12T03:38:08;96267.78;;;1.81;100.00
55271;BME280;41132;47.162;9.470;2023-03-12T03:40:33;96261.78;;;1.80;100.00
55271;BME280;41132;47.162;9.470;2023-03-12T03:42:58;96272.03;;;1.82;100.00
55271;BME280;41132;47.162;9.470;2023-03-12T03:45:24;96264.91;;;1.73;100.00
55271;BME280;41132;47.162;9.470;2023-03-12T03:47:50;96261.28;;;1.62;100.00
55271;BME280;41132;47.162;9.470;2023-03-12T03:50:15;96280.19;;;1.88;100.00
55271;BME280;41132;47.162;9.470;2023-03-12T03:52:41;96270.09;;;1.73;100.00
55271;BME280;41132;47.162;9.470;2023-03-12T03:55:06;96274.78;;;1.55;100.00
55271;BME280;41132;47.162;9.470;2023-03-12T03:57:32;96279.81;;;1.69;100.00
55271;BME280;41132;47.162;9.470;2023-03-12T03:59:57;96279.16;;;1.78;100.00
55271;BME280;41132;47.162;9.470;2023-03-12T04:02:24;96284.97;;;1.69;100.00
55271;BME280;41132;47.162;9.470;2023-03-12T04:04:49;96271.16;;;1.57;100.00
55271;BME280;41132;47.162;9.470;2023-03-12T04:07:15;96286.53;;;1.59;100.00
55271;BME280;41132;47.162;9.470;2023-03-12T04:09:41;96284.28;;;1.54;100.00
55271;BME280;41132;47.162;9.470;2023-03-12T04:12:06;96272.78;;;1.58;100.00
55271;BME280;41132;47.162;9.470;2023-03-12T04:14:32;96279.91;;;1.67;100.00
55271;BME280;41132;47.162;9.470;2023-03-12T04:16:57;96271.78;;;1.48;100.00
55271;BME280;41132;47.162;9.470;2023-03-12T04:19:23;96273.38;;;1.75;100.00
55271;BME280;41132;47.162;9.470;2023-03-12T04:21:48;96267.78;;;1.81;100.00
55271;BME280;41132;47.162;9.470;2023-03-12T04:24:15;96268.63;;;1.69;100.00
55271;BME280;41132;47.162;9.470;2023-03-12T04:26:40;96261.69;;;1.82;100.00
55271;BME280;41132;47.162;9.470;2023-03-12T04:29:06;96260.09;;;1.79;100.00
55271;BME280;41132;47.162;9.470;2023-03-12T04:31:32;96274.41;;;1.72;100.00
55271;BME280;41132;47.162;9.470;2023-03-12T04:33:57;96272.16;;;1.67;100.00
55271;BME280;41132;47.162;9.470;2023-03-12T04:36:23;96265.72;;;1.73;100.00
55271;BME280;41132;47.162;9.470;2023-03-12T04:38:49;96280.00;;;1.79;100.00
55271;BME280;41132;47.162;9.470;2023-03-12T04:41:15;96267.94;;;1.54;100.00
55271;BME280;41132;47.162;9.470;2023-03-12T04:43:40;96260.31;;;1.39;100.00
55271;BME280;41132;47.162;9.470;2023-03-12T04:46:07;96266.97;;;1.67;100.00
55271;BME280;41132;47.162;9.470;2023-03-12T04:48:33;96273.00;;;1.55;100.00
55271;BME280;41132;47.162;9.470;2023-03-12T04:50:58;96262.25;;;1.61;100.00
55271;BME280;41132;47.162;9.470;2023-03-12T04:53:24;96263.16;;;1.73;100.00
55271;BME280;41132;47.162;9.470;2023-03-12T04:55:50;96271.63;;;1.75;100.00
55271;BME280;41132;47.162;9.470;2023-03-12T04:58:16;96271.72;;;1.86;100.00
55271;BME280;41132;47.162;9.470;2023-03-12T05:00:41;96263.56;;;1.80;100.00
55271;BME280;41132;47.162;9.470;2023-03-12T05:03:07;96270.59;;;1.78;100.00
55271;BME280;41132;47.162;9.470;2023-03-12T05:05:33;96264.38;;;1.80;100.00
55271;BME280;41132;47.162;9.470;2023-03-12T05:07:59;96261.03;;;1.91;100.00
55271;BME280;41132;47.162;9.470;2023-03-12T05:10:25;96270.03;;;1.85;100.00
55271;BME280;41132;47.162;9.470;2023-03-12T05:12:50;96251.75;;;1.76;100.00
55271;BME280;41132;47.162;9.470;2023-03-12T05:15:15;96254.03;;;1.80;100.00
55271;BME280;41132;47.162;9.470;2023-03-12T05:17:42;96254.59;;;1.84;100.00
55271;BME280;41132;47.162;9.470;2023-03-12T05:20:08;96256.19;;;1.86;100.00
55271;BME280;41132;47.162;9.470;2023-03-12T05:22:34;96240.53;;;1.88;100.00
55271;BME280;41132;47.162;9.470;2023-03-12T05:24:59;96225.69;;;1.66;100.00
55271;BME280;41132;47.162;9.470;2023-03-12T05:27:25;96248.03;;;1.67;100.00
55271;BME280;41132;47.162;9.470;2023-03-12T05:29:51;96240.75;;;1.85;100.00
55271;BME280;41132;47.162;9.470;2023-03-12T05:32:16;96233.22;;;1.82;100.00
55271;BME280;41132;47.162;9.470;2023-03-12T05:34:42;96253.13;;;1.93;100.00
55271;BME280;41132;47.162;9.470;2023-03-12T05:37:07;96249.56;;;1.82;100.00
55271;BME280;41132;47.162;9.470;2023-03-12T05:39:32;96243.59;;;1.56;100.00
55271;BME280;41132;47.162;9.470;2023-03-12T05:41:58;96254.25;;;1.64;100.00
55271;BME280;41132;47.162;9.470;2023-03-12T05:44:25;96253.69;;;1.85;100.00
55271;BME280;41132;47.162;9.470;2023-03-12T05:46:51;96232.56;;;1.91;100.00
55271;BME280;41132;47.162;9.470;2023-03-12T05:49:17;96236.44;;;2.09;100.00
55271;BME280;41132;47.162;9.470;2023-03-12T05:51:43;96229.81;;;2.29;100.00
55271;BME280;41132;47.162;9.470;2023-03-12T05:54:10;96235.69;;;2.32;100.00
55271;BME280;41132;47.162;9.470;2023-03-12T05:56:36;96227.38;;;2.15;100.00
55271;BME280;41132;47.162;9.470;2023-03-12T05:59:01;96230.97;;;2.01;100.00
55271;BME280;41132;47.162;9.470;2023-03-12T06:01:29;96245.78;;;1.99;100.00
55271;BME280;41132;47.162;9.470;2023-03-12T06:03:55;96236.13;;;1.77;100.00
55271;BME280;41132;47.162;9.470;2023-03-12T06:06:21;96237.47;;;1.70;100.00
55271;BME280;41132;47.162;9.470;2023-03-12T06:08:47;96239.28;;;1.94;100.00
55271;BME280;41132;47.162;9.470;2023-03-12T06:11:13;96232.44;;;1.93;100.00
55271;BME280;41132;47.162;9.470;2023-03-12T06:13:38;96234.75;;;2.08;100.00
55271;BME280;41132;47.162;9.470;2023-03-12T06:16:10;96228.47;;;2.00;100.00
55271;BME280;41132;47.162;9.470;2023-03-12T06:18:36;96225.44;;;1.82;100.00
55271;BME280;41132;47.162;9.470;2023-03-12T06:21:16;96231.53;;;1.81;100.00
55271;BME280;41132;47.162;9.470;2023-03-12T06:23:42;96230.13;;;2.01;100.00
55271;BME280;41132;47.162;9.470;2023-03-12T06:26:10;96213.94;;;2.10;100.00
55271;BME280;41132;47.162;9.470;2023-03-12T06:28:36;96215.06;;;2.19;100.00
55271;BME280;41132;47.162;9.470;2023-03-12T06:31:02;96214.19;;;2.07;100.00
55271;BME280;41132;47.162;9.470;2023-03-12T06:33:28;96216.47;;;1.99;100.00
55271;BME280;41132;47.162;9.470;2023-03-12T06:35:58;96225.13;;;2.11;100.00
55271;BME280;41132;47.162;9.470;2023-03-12T06:38:24;96214.03;;;2.08;100.00
55271;BME280;41132;47.162;9.470;2023-03-12T06:40:58;96216.59;;;2.21;100.00
55271;BME280;41132;47.162;9.470;2023-03-12T06:43:25;96219.06;;;1.99;100.00
55271;BME280;41132;47.162;9.470;2023-03-12T06:45:52;96217.69;;;2.06;100.00
55271;BME280;41132;47.162;9.470;2023-03-12T06:48:18;96217.97;;;2.14;100.00
55271;BME280;41132;47.162;9.470;2023-03-12T06:50:43;96209.06;;;2.18;100.00
55271;BME280;41132;47.162;9.470;2023-03-12T06:53:08;96217.84;;;2.16;100.00
55271;BME280;41132;47.162;9.470;2023-03-12T06:55:34;96234.75;;;2.33;100.00
55271;BME280;41132;47.162;9.470;2023-03-12T06:57:59;96219.22;;;2.33;100.00
55271;BME280;41132;47.162;9.470;2023-03-12T07:00:24;96230.44;;;2.44;100.00
55271;BME280;41132;47.162;9.470;2023-03-12T07:02:50;96245.31;;;2.54;100.00
55271;BME280;41132;47.162;9.470;2023-03-12T07:05:15;96243.53;;;2.54;100.00
55271;BME280;41132;47.162;9.470;2023-03-12T07:07:41;96257.84;;;2.60;100.00
55271;BME280;41132;47.162;9.470;2023-03-12T07:10:06;96273.50;;;2.34;100.00
55271;BME280;41132;47.162;9.470;2023-03-12T07:12:32;96293.44;;;2.21;100.00
55271;BME280;41132;47.162;9.470;2023-03-12T07:14:57;96306.25;;;1.98;100.00
55271;BME280;41132;47.162;9.470;2023-03-12T07:17:23;96311.94;;;2.03;100.00
55271;BME280;41132;47.162;9.470;2023-03-12T07:19:50;96321.25;;;2.06;100.00
55271;BME280;41132;47.162;9.470;2023-03-12T07:22:16;96332.16;;;2.22;100.00
55271;BME280;41132;47.162;9.470;2023-03-12T07:24:41;96338.94;;;2.12;100.00
55271;BME280;41132;47.162;9.470;2023-03-12T07:27:07;96340.34;;;2.29;100.00
55271;BME280;41132;47.162;9.470;2023-03-12T07:29:32;96326.56;;;2.28;100.00
55271;BME280;41132;47.162;9.470;2023-03-12T07:31:57;96324.63;;;2.19;100.00
55271;BME280;41132;47.162;9.470;2023-03-12T07:34:23;96322.47;;;2.13;100.00
55271;BME280;41132;47.162;9.470;2023-03-12T07:36:48;96323.72;;;2.20;100.00
55271;BME280;41132;47.162;9.470;2023-03-12T07:39:13;96325.25;;;2.23;100.00
55271;BME280;41132;47.162;9.470;2023-03-12T07:41:39;96321.72;;;2.24;100.00
55271;BME280;41132;47.162;9.470;2023-03-12T07:44:04;96311.75;;;2.30;100.00
55271;BME280;41132;47.162;9.470;2023-03-12T07:46:30;96308.59;;;2.38;100.00
55271;BME280;41132;47.162;9.470;2023-03-12T07:48:55;96324.66;;;2.43;100.00
55271;BME280;41132;47.162;9.470;2023-03-12T07:51:20;96328.91;;;2.32;100.00
55271;BME280;41132;47.162;9.470;2023-03-12T07:53:46;96295.72;;;2.25;100.00
55271;BME280;41132;47.162;9.470;2023-03-12T07:56:11;96295.44;;;2.41;100.00
55271;BME280;41132;47.162;9.470;2023-03-12T07:58:37;96286.44;;;2.58;100.00
55271;BME280;41132;47.162;9.470;2023-03-12T08:01:03;96263.09;;;2.82;100.00
55271;BME280;41132;47.162;9.470;2023-03-12T08:03:30;96286.47;;;2.93;100.00
55271;BME280;41132;47.162;9.470;2023-03-12T08:05:58;96286.84;;;3.00;100.00
55271;BME280;41132;47.162;9.470;2023-03-12T08:08:25;96282.69;;;2.98;100.00
55271;BME280;41132;47.162;9.470;2023-03-12T08:10:51;96263.97;;;3.05;100.00
55271;BME280;41132;47.162;9.470;2023-03-12T08:13:17;96281.19;;;3.18;100.00
55271;BME280;41132;47.162;9.470;2023-03-12T08:15:43;96306.81;;;3.33;100.00
55271;BME280;41132;47.162;9.470;2023-03-12T08:18:08;96281.31;;;3.16;100.00
55271;BME280;41132;47.162;9.470;2023-03-12T08:20:34;96299.38;;;3.29;100.00
55271;BME280;41132;47.162;9.470;2023-03-12T08:22:59;96303.97;;;3.25;100.00
55271;BME280;41132;47.162;9.470;2023-03-12T08:25:25;96292.66;;;3.26;100.00
55271;BME280;41132;47.162;9.470;2023-03-12T08:27:50;96305.28;;;3.31;100.00
55271;BME280;41132;47.162;9.470;2023-03-12T08:30:16;96306.59;;;3.37;100.00
55271;BME280;41132;47.162;9.470;2023-03-12T08:32:41;96316.28;;;3.46;100.00
55271;BME280;41132;47.162;9.470;2023-03-12T08:35:07;96320.97;;;3.52;100.00
55271;BME280;41132;47.162;9.470;2023-03-12T08:37:34;96326.78;;;3.67;100.00
55271;BME280;41132;47.162;9.470;2023-03-12T08:40:00;96325.72;;;3.58;100.00
55271;BME280;41132;47.162;9.470;2023-03-12T08:42:26;96320.16;;;3.51;100.00
55271;BME280;41132;47.162;9.470;2023-03-12T08:44:52;96327.03;;;3.64;100.00
55271;BME280;41132;47.162;9.470;2023-03-12T08:47:17;96330.69;;;3.61;100.00
55271;BME280;41132;47.162;9.470;2023-03-12T08:49:42;96335.63;;;3.64;100.00
55271;BME280;41132;47.162;9.470;2023-03-12T08:52:08;96338.34;;;3.74;100.00
55271;BME280;41132;47.162;9.470;2023-03-12T08:54:33;96319.97;;;3.77;100.00
55271;BME280;41132;47.162;9.470;2023-03-12T08:56:58;96321.13;;;3.73;100.00
55271;BME280;41132;47.162;9.470;2023-03-12T08:59:24;96346.13;;;3.85;100.00
55271;BME280;41132;47.162;9.470;2023-03-12T09:01:49;96334.69;;;3.99;100.00
55271;BME280;41132;47.162;9.470;2023-03-12T09:04:15;96338.69;;;4.26;100.00
55271;BME280;41132;47.162;9.470;2023-03-12T09:06:41;96334.31;;;4.15;100.00
55271;BME280;41132;47.162;9.470;2023-03-12T09:09:07;96332.53;;;4.27;100.00
55271;BME280;41132;47.162;9.470;2023-03-12T09:11:35;96337.06;;;4.02;100.00
55271;BME280;41132;47.162;9.470;2023-03-12T09:14:01;96357.00;;;4.02;100.00
55271;BME280;41132;47.162;9.470;2023-03-12T09:16:27;96360.88;;;4.18;100.00
55271;BME280;41132;47.162;9.470;2023-03-12T09:18:53;96362.19;;;4.13;100.00
55271;BME280;41132;47.162;9.470;2023-03-12T09:21:18;96362.53;;;3.97;100.00
55271;BME280;41132;47.162;9.470;2023-03-12T09:23:43;96354.53;;;3.78;100.00
55271;BME280;41132;47.162;9.470;2023-03-12T09:26:10;96356.06;;;4.14;100.00
55271;BME280;41132;47.162;9.470;2023-03-12T09:28:35;96371.50;;;4.15;100.00
55271;BME280;41132;47.162;9.470;2023-03-12T09:31:02;96396.78;;;4.13;100.00
55271;BME280;41132;47.162;9.470;2023-03-12T09:33:27;96398.06;;;4.19;100.00
55271;BME280;41132;47.162;9.470;2023-03-12T09:35:57;96379.88;;;3.85;100.00
55271;BME280;41132;47.162;9.470;2023-03-12T09:38:22;96375.41;;;3.98;100.00
55271;BME280;41132;47.162;9.470;2023-03-12T09:40:48;96381.78;;;4.17;100.00
55271;BME280;41132;47.162;9.470;2023-03-12T09:43:28;96381.78;;;4.17;100.00
55271;BME280;41132;47.162;9.470;2023-03-12T09:45:57;96397.47;;;4.04;100.00
55271;BME280;41132;47.162;9.470;2023-03-12T09:48:27;96416.16;;;3.98;100.00
55271;BME280;41132;47.162;9.470;2023-03-12T09:50:56;96407.75;;;4.06;100.00
55271;BME280;41132;47.162;9.470;2023-03-12T09:53:34;96409.44;;;4.07;100.00
55271;BME280;41132;47.162;9.470;2023-03-12T09:56:03;96397.97;;;4.32;100.00
55271;BME280;41132;47.162;9.470;2023-03-12T09:58:36;96383.28;;;4.53;100.00
55271;BME280;41132;47.162;9.470;2023-03-12T10:03:54;96387.50;;;5.09;100.00
55271;BME280;41132;47.162;9.470;2023-03-12T10:06:22;96378.81;;;5.20;100.00
55271;BME280;41132;47.162;9.470;2023-03-12T10:11:48;96400.50;;;5.09;100.00
55271;BME280;41132;47.162;9.470;2023-03-12T10:14:36;96405.38;;;5.02;100.00
55271;BME280;41132;47.162;9.470;2023-03-12T10:20:19;96418.41;;;4.91;100.00
55271;BME280;41132;47.162;9.470;2023-03-12T10:25:45;96417.59;;;4.91;100.00
55271;BME280;41132;47.162;9.470;2023-03-12T10:28:24;96419.19;;;5.03;100.00
55271;BME280;41132;47.162;9.470;2023-03-12T10:30:58;96413.16;;;5.14;100.00
55271;BME280;41132;47.162;9.470;2023-03-12T10:33:36;96422.50;;;5.37;100.00
55271;BME280;41132;47.162;9.470;2023-03-12T10:36:18;96416.69;;;5.45;100.00
55271;BME280;41132;47.162;9.470;2023-03-12T10:38:45;96420.66;;;5.49;100.00
55271;BME280;41132;47.162;9.470;2023-03-12T10:41:26;96415.78;;;5.56;100.00
55271;BME280;41132;47.162;9.470;2023-03-12T10:43:53;96400.91;;;5.68;100.00
55271;BME280;41132;47.162;9.470;2023-03-12T10:46:47;96396.69;;;5.67;100.00
55271;BME280;41132;47.162;9.470;2023-03-12T10:49:27;96411.47;;;5.87;100.00
55271;BME280;41132;47.162;9.470;2023-03-12T10:52:29;96411.16;;;5.80;100.00
55271;BME280;41132;47.162;9.470;2023-03-12T10:54:51;96426.13;;;5.88;100.00
55271;BME280;41132;47.162;9.470;2023-03-12T10:57:18;96408.94;;;5.76;100.00
55271;BME280;41132;47.162;9.470;2023-03-12T10:59:46;96410.56;;;5.56;100.00
55271;BME280;41132;47.162;9.470;2023-03-12T11:05:21;96414.47;;;5.61;100.00
55271;BME280;41132;47.162;9.470;2023-03-12T11:07:47;96423.03;;;5.73;100.00
55271;BME280;41132;47.162;9.470;2023-03-12T11:10:19;96432.09;;;5.58;100.00
55271;BME280;41132;47.162;9.470;2023-03-12T11:13:03;96438.88;;;5.49;100.00
55271;BME280;41132;47.162;9.470;2023-03-12T11:15:40;96442.63;;;5.56;100.00
55271;BME280;41132;47.162;9.470;2023-03-12T11:18:30;96445.16;;;5.47;100.00
55271;BME280;41132;47.162;9.470;2023-03-12T11:21:11;96444.31;;;5.57;100.00
55271;BME280;41132;47.162;9.470;2023-03-12T11:23:43;96439.91;;;5.58;100.00
55271;BME280;41132;47.162;9.470;2023-03-12T11:26:20;96437.38;;;5.68;100.00
55271;BME280;41132;47.162;9.470;2023-03-12T11:28:49;96439.53;;;5.62;100.00
55271;BME280;41132;47.162;9.470;2023-03-12T11:31:36;96439.09;;;5.57;100.00
55271;BME280;41132;47.162;9.470;2023-03-12T11:34:17;96439.78;;;5.59;100.00
55271;BME280;41132;47.162;9.470;2023-03-12T11:37:14;96432.53;;;5.63;100.00
55271;BME280;41132;47.162;9.470;2023-03-12T11:39:57;96440.44;;;5.73;100.00
55271;BME280;41132;47.162;9.470;2023-03-12T11:45:45;96457.47;;;5.77;100.00
55271;BME280;41132;47.162;9.470;2023-03-12T11:56:33;96437.69;;;5.74;100.00
55271;BME280;41132;47.162;9.470;2023-03-12T12:02:43;96457.03;;;5.93;100.00
55271;BME280;41132;47.162;9.470;2023-03-12T12:07:54;96434.59;;;6.01;100.00
55271;BME280;41132;47.162;9.470;2023-03-12T12:13:07;96457.47;;;6.19;100.00
55271;BME280;41132;47.162;9.470;2023-03-12T12:16:00;96446.72;;;6.12;100.00
55271;BME280;41132;47.162;9.470;2023-03-12T12:19:26;96439.00;;;6.32;100.00
55271;BME280;41132;47.162;9.470;2023-03-12T12:27:51;96447.06;;;6.59;100.00
55271;BME280;41132;47.162;9.470;2023-03-12T12:30:44;96450.69;;;6.68;100.00
55271;BME280;41132;47.162;9.470;2023-03-12T12:35:52;96462.81;;;6.48;100.00
55271;BME280;41132;47.162;9.470;2023-03-12T12:41:08;96464.22;;;6.52;100.00
55271;BME280;41132;47.162;9.470;2023-03-12T12:44:03;96474.63;;;6.52;100.00
55271;BME280;41132;47.162;9.470;2023-03-12T12:46:38;96462.94;;;6.46;100.00
55271;BME280;41132;47.162;9.470;2023-03-12T12:49:20;96454.31;;;6.56;100.00
55271;BME280;41132;47.162;9.470;2023-03-12T12:51:52;96461.06;;;6.58;100.00
55271;BME280;41132;47.162;9.470;2023-03-12T12:54:50;96460.91;;;6.50;100.00
55271;BME280;41132;47.162;9.470;2023-03-12T12:58:06;96467.63;;;6.53;100.00
55271;BME280;41132;47.162;9.470;2023-03-12T13:00:37;96467.38;;;6.25;100.00
55271;BME280;41132;47.162;9.470;2023-03-12T13:03:03;96466.31;;;6.37;100.00
55271;BME280;41132;47.162;9.470;2023-03-12T13:08:02;96453.56;;;6.34;100.00
55271;BME280;41132;47.162;9.470;2023-03-12T13:13:20;96451.19;;;6.31;100.00
55271;BME280;41132;47.162;9.470;2023-03-12T13:15:46;96454.19;;;6.47;100.00
55271;BME280;41132;47.162;9.470;2023-03-12T13:18:23;96454.50;;;6.64;100.00
55271;BME280;41132;47.162;9.470;2023-03-12T13:23:42;96461.94;;;6.78;100.00
55271;BME280;41132;47.162;9.470;2023-03-12T13:26:22;96457.81;;;6.76;100.00
55271;BME280;41132;47.162;9.470;2023-03-12T13:36:35;96474.44;;;6.75;100.00
55271;BME280;41132;47.162;9.470;2023-03-12T13:41:57;96484.91;;;6.54;100.00
55271;BME280;41132;47.162;9.470;2023-03-12T13:44:30;96480.94;;;6.50;100.00
55271;BME280;41132;47.162;9.470;2023-03-12T13:50:02;96490.50;;;6.70;100.00
55271;BME280;41132;47.162;9.470;2023-03-12T13:52:29;96494.78;;;6.81;100.00
55271;BME280;41132;47.162;9.470;2023-03-12T13:57:43;96486.06;;;6.61;100.00
55271;BME280;41132;47.162;9.470;2023-03-12T14:03:03;96469.97;;;6.56;100.00
55271;BME280;41132;47.162;9.470;2023-03-12T14:05:34;96476.78;;;6.78;100.00
55271;BME280;41132;47.162;9.470;2023-03-12T14:14:20;96476.44;;;7.02;100.00
55271;BME280;41132;47.162;9.470;2023-03-12T14:16:53;96468.06;;;6.98;100.00
55271;BME280;41132;47.162;9.470;2023-03-12T14:19:24;96463.81;;;7.07;100.00
55271;BME280;41132;47.162;9.470;2023-03-12T14:21:50;96471.78;;;7.05;100.00
55271;BME280;41132;47.162;9.470;2023-03-12T14:24:39;96484.00;;;7.15;100.00
55271;BME280;41132;47.162;9.470;2023-03-12T14:27:13;96457.78;;;7.26;100.00
55271;BME280;41132;47.162;9.470;2023-03-12T14:29:52;96438.97;;;7.22;100.00
55271;BME280;41132;47.162;9.470;2023-03-12T14:32:22;96445.56;;;7.17;100.00
55271;BME280;41132;47.162;9.470;2023-03-12T14:34:53;96451.06;;;7.23;100.00
55271;BME280;41132;47.162;9.470;2023-03-12T14:37:27;96444.47;;;7.29;100.00
55271;BME280;41132;47.162;9.470;2023-03-12T14:39:59;96445.16;;;7.31;100.00
55271;BME280;41132;47.162;9.470;2023-03-12T14:42:31;96442.53;;;7.21;100.00
55271;BME280;41132;47.162;9.470;2023-03-12T14:45:17;96444.44;;;7.19;100.00
55271;BME280;41132;47.162;9.470;2023-03-12T14:47:47;96447.63;;;7.13;100.00
55271;BME280;41132;47.162;9.470;2023-03-12T14:50:27;96441.94;;;6.88;100.00
55271;BME280;41132;47.162;9.470;2023-03-12T14:52:54;96441.69;;;7.01;100.00